createdAt,value
2022-07-26T00:00:13.408Z,98.40
2022-07-26T00:02:47.871Z,95.50
2022-07-26T00:05:15.954Z,94.70
2022-07-26T00:07:42.965Z,96.50
2022-07-26T00:10:10.082Z,97.40
2022-07-26T00:12:37.514Z,95.80
2022-07-26T00:15:06.642Z,95.60
2022-07-26T00:17:33.467Z,97.10
2022-07-26T00:20:00.284Z,98.40
2022-07-26T00:22:35.943Z,99.00
2022-07-26T00:25:08.949Z,98.80
2022-07-26T00:27:39.426Z,96.80
2022-07-26T00:30:08.084Z,97.70
2022-07-26T00:32:35.051Z,98.50
2022-07-26T00:35:01.945Z,98.90
2022-07-26T00:37:28.727Z,99.60
2022-07-26T00:39:55.582Z,98.80
2022-07-26T00:42:22.363Z,98.80
2022-07-26T00:44:49.163Z,98.80
2022-07-26T00:47:16.915Z,99.90
2022-07-26T00:49:43.793Z,98.70
2022-07-26T00:52:11.599Z,98.30
2022-07-26T00:54:39.537Z,98.80
2022-07-26T00:57:07.149Z,99.20
2022-07-26T00:59:34.093Z,99.40
2022-07-26T01:02:02.964Z,93.50
2022-07-26T01:04:30.739Z,94.00
2022-07-26T01:06:57.777Z,93.80
2022-07-26T01:09:24.899Z,91.40
2022-07-26T01:11:51.688Z,88.00
2022-07-26T01:14:23.964Z,88.50
2022-07-26T01:16:51.290Z,92.50
2022-07-26T01:19:18.733Z,93.90
2022-07-26T01:21:45.939Z,94.00
2022-07-26T01:24:13.056Z,93.50
2022-07-26T01:26:40.251Z,89.50
2022-07-26T01:29:07.545Z,87.20
2022-07-26T01:31:34.418Z,90.90
2022-07-26T01:34:01.356Z,92.50
2022-07-26T01:36:28.155Z,93.70
2022-07-26T01:38:54.885Z,92.60
2022-07-26T01:41:38.078Z,93.40
2022-07-26T01:44:06.687Z,94.30
2022-07-26T01:46:35.009Z,93.10
2022-07-26T01:49:02.004Z,93.40
2022-07-26T01:51:29.162Z,94.70
2022-07-26T01:53:56.236Z,95.10
2022-07-26T01:56:23.017Z,93.70
2022-07-26T01:58:50.295Z,92.60
2022-07-26T02:01:39.073Z,92.60
2022-07-26T02:04:04.491Z,92.80
2022-07-26T02:06:31.528Z,93.70
2022-07-26T02:08:58.581Z,94.50
2022-07-26T02:11:26.440Z,92.80
2022-07-26T02:13:53.479Z,90.90
2022-07-26T02:16:20.439Z,89.80
2022-07-26T02:18:47.285Z,86.40
2022-07-26T02:21:14.107Z,83.30
2022-07-26T02:23:41.784Z,82.60
2022-07-26T02:26:08.993Z,80.80
2022-07-26T02:28:35.766Z,79.20
2022-07-26T02:31:02.558Z,79.00
2022-07-26T02:33:29.330Z,77.80
2022-07-26T02:35:56.053Z,79.70
2022-07-26T02:38:23.017Z,81.10
2022-07-26T02:40:52.584Z,77.90
2022-07-26T02:43:19.514Z,78.70
2022-07-26T02:46:01.301Z,79.40
2022-07-26T02:48:30.123Z,78.30
2022-07-26T02:50:57.068Z,81.40
2022-07-26T02:53:23.854Z,82.80
2022-07-26T02:55:50.851Z,82.30
2022-07-26T02:58:17.624Z,79.90
2022-07-26T03:00:44.428Z,79.00
2022-07-26T03:03:14.138Z,81.20
2022-07-26T03:05:41.416Z,80.60
2022-07-26T03:08:08.891Z,83.00
2022-07-26T03:10:35.605Z,82.40
2022-07-26T03:13:02.281Z,82.10
2022-07-26T03:15:29.453Z,81.60
2022-07-26T03:17:56.232Z,80.20
2022-07-26T03:20:24.049Z,79.90
2022-07-26T03:22:50.722Z,77.40
2022-07-26T03:25:17.496Z,77.00
2022-07-26T03:27:44.253Z,78.10
2022-07-26T03:30:11.864Z,80.50
2022-07-26T03:32:38.615Z,80.70
2022-07-26T03:35:06.615Z,80.80
2022-07-26T03:37:45.084Z,80.70
2022-07-26T03:40:16.358Z,80.10
2022-07-26T03:42:43.904Z,80.50
2022-07-26T03:45:11.897Z,83.00
2022-07-26T03:47:39.044Z,84.30
2022-07-26T03:50:06.332Z,86.70
2022-07-26T03:52:33.496Z,89.10
2022-07-26T03:55:00.364Z,88.50
2022-07-26T03:57:28.241Z,85.50
2022-07-26T03:59:55.792Z,87.60
2022-07-26T04:02:22.569Z,88.80
2022-07-26T04:04:49.429Z,91.70
2022-07-26T04:07:16.379Z,93.10
2022-07-26T04:09:43.160Z,94.50
2022-07-26T04:12:09.924Z,99.90
2022-07-26T04:14:36.620Z,99.90
2022-07-26T04:17:03.431Z,99.90
2022-07-26T04:19:30.165Z,99.90
2022-07-26T04:21:56.877Z,99.90
2022-07-26T04:24:25.685Z,99.90
2022-07-26T04:26:52.794Z,99.90
2022-07-26T04:29:19.513Z,99.90
2022-07-26T04:31:46.265Z,99.90
2022-07-26T04:34:12.985Z,99.90
2022-07-26T04:36:40.076Z,99.90
2022-07-26T04:39:06.893Z,99.90
2022-07-26T04:41:33.677Z,99.90
2022-07-26T04:44:00.430Z,99.90
2022-07-26T04:46:27.308Z,99.90
2022-07-26T04:48:54.233Z,99.90
2022-07-26T04:51:21.203Z,99.90
2022-07-26T04:53:48.046Z,99.90
2022-07-26T04:56:14.875Z,99.90
2022-07-26T04:58:41.704Z,99.90
2022-07-26T05:01:10.463Z,99.90
2022-07-26T05:03:38.467Z,99.90
2022-07-26T05:06:05.386Z,99.90
2022-07-26T05:08:32.276Z,99.90
2022-07-26T05:10:59.070Z,99.90
2022-07-26T05:13:30.205Z,99.90
2022-07-26T05:15:57.878Z,99.90
2022-07-26T05:18:24.628Z,99.90
2022-07-26T05:20:51.840Z,99.90
2022-07-26T05:23:20.481Z,99.90
2022-07-26T05:25:47.596Z,99.90
2022-07-26T05:28:14.388Z,99.90
2022-07-26T05:30:41.258Z,99.90
2022-07-26T05:33:08.125Z,99.90
2022-07-26T05:35:34.965Z,99.90
2022-07-26T05:38:01.845Z,99.90
2022-07-26T05:40:28.830Z,99.90
2022-07-26T05:42:55.664Z,99.90
2022-07-26T05:45:22.759Z,99.90
2022-07-26T05:47:50.937Z,99.90
2022-07-26T05:50:17.745Z,99.90
2022-07-26T05:52:44.453Z,99.90
2022-07-26T05:55:11.396Z,99.90
2022-07-26T05:57:41.672Z,99.90
2022-07-26T06:00:09.755Z,99.90
2022-07-26T06:02:36.751Z,99.90
2022-07-26T06:05:03.868Z,99.90
2022-07-26T06:07:30.758Z,99.90
2022-07-26T06:09:57.466Z,99.90
2022-07-26T06:12:24.309Z,99.90
2022-07-26T06:14:51.111Z,99.90
2022-07-26T06:17:18.215Z,99.90
2022-07-26T06:19:47.722Z,99.90
2022-07-26T06:22:14.976Z,99.90
2022-07-26T06:24:41.690Z,99.90
2022-07-26T06:27:08.463Z,99.90
2022-07-26T06:29:35.301Z,99.90
2022-07-26T06:32:02.259Z,99.90
2022-07-26T06:34:29.176Z,99.90
2022-07-26T06:36:56.186Z,99.90
2022-07-26T06:39:23.045Z,99.90
2022-07-26T06:41:49.792Z,99.90
2022-07-26T06:44:16.625Z,99.90
2022-07-26T06:46:43.558Z,99.90
2022-07-26T06:49:10.498Z,99.90
2022-07-26T06:51:38.023Z,99.90
2022-07-26T06:54:05.789Z,99.90
2022-07-26T06:56:33.014Z,99.90
2022-07-26T06:58:59.766Z,99.90
2022-07-26T07:01:55.402Z,99.90
2022-07-26T07:04:13.860Z,99.90
2022-07-26T07:06:40.792Z,99.90
2022-07-26T07:09:08.796Z,99.90
2022-07-26T07:11:35.980Z,99.90
2022-07-26T07:14:03.379Z,99.90
2022-07-26T07:16:30.639Z,99.90
2022-07-26T07:18:57.586Z,99.90
2022-07-26T07:21:24.374Z,99.90
2022-07-26T07:23:51.184Z,99.90
2022-07-26T07:26:20.264Z,99.90
2022-07-26T07:28:47.022Z,99.90
2022-07-26T07:31:15.591Z,99.90
2022-07-26T07:33:53.009Z,99.90
2022-07-26T07:36:20.855Z,99.90
2022-07-26T07:38:48.786Z,99.90
2022-07-26T07:41:16.427Z,99.90
2022-07-26T07:43:43.226Z,99.90
2022-07-26T07:46:09.983Z,99.90
2022-07-26T07:48:38.709Z,99.90
2022-07-26T07:51:08.714Z,99.90
2022-07-26T07:53:35.767Z,99.90
2022-07-26T07:56:02.621Z,99.90
2022-07-26T07:58:29.452Z,99.90
2022-07-26T08:00:56.235Z,99.90
2022-07-26T08:03:23.001Z,99.90
2022-07-26T08:05:50.811Z,99.90
2022-07-26T08:08:21.947Z,99.90
2022-07-26T08:10:52.352Z,99.90
2022-07-26T08:13:23.224Z,99.90
2022-07-26T08:15:54.626Z,99.90
2022-07-26T08:18:23.335Z,99.90
2022-07-26T08:20:52.029Z,99.90
2022-07-26T08:23:20.177Z,99.90
2022-07-26T08:25:56.210Z,99.90
2022-07-26T08:28:45.544Z,99.80
2022-07-26T08:31:11.663Z,99.90
2022-07-26T08:33:40.543Z,99.90
2022-07-26T08:36:11.824Z,99.90
2022-07-26T08:38:38.602Z,99.90
2022-07-26T08:41:05.567Z,99.90
2022-07-26T08:43:32.803Z,97.40
2022-07-26T08:46:24.389Z,99.90
2022-07-26T08:48:51.655Z,97.20
2022-07-26T08:51:21.670Z,99.00
2022-07-26T08:53:48.915Z,94.40
2022-07-26T08:56:15.660Z,92.70
2022-07-26T08:58:43.445Z,90.00
2022-07-26T09:01:15.302Z,88.40
2022-07-26T09:03:43.720Z,92.30
2022-07-26T09:06:19.400Z,93.70
2022-07-26T09:08:49.141Z,94.00
2022-07-26T09:11:24.869Z,89.90
2022-07-26T09:13:54.169Z,88.90
2022-07-26T09:16:21.223Z,89.30
2022-07-26T09:18:48.077Z,85.40
2022-07-26T09:21:36.491Z,90.60
2022-07-26T09:24:03.937Z,84.20
2022-07-26T09:26:31.026Z,87.10
2022-07-26T09:29:07.117Z,89.70
2022-07-26T09:31:34.989Z,90.20
2022-07-26T09:34:02.064Z,85.20
2022-07-26T09:36:29.371Z,83.40
2022-07-26T09:39:00.550Z,79.20
2022-07-26T09:41:36.696Z,76.40
2022-07-26T09:44:06.109Z,76.50
2022-07-26T09:46:35.792Z,76.10
2022-07-26T09:49:20.143Z,78.30
2022-07-26T09:51:49.472Z,76.50
2022-07-26T09:54:31.658Z,73.00
2022-07-26T09:56:59.800Z,78.50
2022-07-26T09:59:28.354Z,76.40
2022-07-26T10:01:58.001Z,72.50
2022-07-26T10:04:25.655Z,70.90
2022-07-26T10:06:52.857Z,71.70
2022-07-26T10:09:22.846Z,72.00
2022-07-26T10:11:57.937Z,69.00
2022-07-26T10:14:34.148Z,69.30
2022-07-26T10:17:02.006Z,68.80
2022-07-26T10:19:45.285Z,68.20
2022-07-26T10:22:43.393Z,64.90
2022-07-26T10:25:33.442Z,64.30
2022-07-26T10:28:00.225Z,64.20
2022-07-26T10:30:34.436Z,62.30
2022-07-26T10:33:10.498Z,62.00
2022-07-26T10:35:41.973Z,62.70
2022-07-26T10:38:14.744Z,62.90
2022-07-26T10:40:58.095Z,63.00
2022-07-26T10:43:42.351Z,61.50
2022-07-26T10:46:15.804Z,60.40
2022-07-26T10:49:01.560Z,62.30
2022-07-26T10:51:39.692Z,60.00
2022-07-26T10:54:12.085Z,61.90
2022-07-26T10:56:40.191Z,57.50
2022-07-26T10:59:07.474Z,58.70
2022-07-26T11:01:39.392Z,58.80
2022-07-26T11:04:17.469Z,58.00
2022-07-26T11:06:45.599Z,57.80
2022-07-26T11:09:12.676Z,59.00
2022-07-26T11:11:40.168Z,57.10
2022-07-26T11:14:16.413Z,57.40
2022-07-26T11:16:49.117Z,54.70
2022-07-26T11:19:21.280Z,56.10
2022-07-26T11:21:55.327Z,54.60
2022-07-26T11:24:22.245Z,54.60
2022-07-26T11:26:49.502Z,56.70
2022-07-26T11:29:38.008Z,55.50
2022-07-26T11:32:39.067Z,54.60
2022-07-26T11:35:06.938Z,55.40
2022-07-26T11:37:33.957Z,55.20
2022-07-26T11:40:00.711Z,54.90
2022-07-26T11:42:27.412Z,55.30
2022-07-26T11:44:54.419Z,56.40
2022-07-26T11:47:24.520Z,55.30
2022-07-26T11:52:40.276Z,54.80
2022-07-26T11:55:07.674Z,54.30
2022-07-26T11:57:34.598Z,52.30
2022-07-26T12:00:01.923Z,52.30
2022-07-26T12:02:30.074Z,54.00
2022-07-26T12:05:33.366Z,52.30
2022-07-26T12:08:04.989Z,52.80
2022-07-26T12:10:32.129Z,52.00
2022-07-26T12:13:15.872Z,52.40
2022-07-26T12:15:51.718Z,51.90
2022-07-26T12:18:51.160Z,50.90
2022-07-26T12:21:17.843Z,55.50
2022-07-26T12:23:48.394Z,56.10
2022-07-26T12:26:20.209Z,54.40
2022-07-26T12:28:47.074Z,54.20
2022-07-26T12:31:23.919Z,53.60
2022-07-26T12:33:51.139Z,52.70
2022-07-26T12:36:28.249Z,52.30
2022-07-26T12:39:00.085Z,52.30
2022-07-26T12:41:40.170Z,52.10
2022-07-26T12:44:11.713Z,52.50
2022-07-26T12:46:39.145Z,53.30
2022-07-26T12:49:06.213Z,53.10
2022-07-26T12:51:33.820Z,53.00
2022-07-26T12:54:00.602Z,51.10
2022-07-26T12:56:27.338Z,51.30
2022-07-26T12:58:54.458Z,50.50
2022-07-26T13:01:21.500Z,50.60
2022-07-26T13:03:48.324Z,50.00
2022-07-26T13:06:15.073Z,48.90
2022-07-26T13:08:41.779Z,50.00
2022-07-26T13:11:08.637Z,49.20
2022-07-26T13:13:35.400Z,47.40
2022-07-26T13:16:02.106Z,49.20
2022-07-26T13:18:28.857Z,47.40
2022-07-26T13:20:56.640Z,49.20
2022-07-26T13:23:25.428Z,46.70
2022-07-26T13:25:53.669Z,44.70
2022-07-26T13:28:21.330Z,44.00
2022-07-26T13:30:48.227Z,42.50
2022-07-26T13:33:16.685Z,42.60
2022-07-26T13:35:43.523Z,43.20
2022-07-26T13:38:10.619Z,44.70
2022-07-26T13:40:37.485Z,44.50
2022-07-26T13:43:05.445Z,41.40
2022-07-26T13:45:32.149Z,42.10
2022-07-26T13:47:59.701Z,42.50
2022-07-26T13:50:29.633Z,38.70
2022-07-26T13:52:57.034Z,43.10
2022-07-26T13:55:25.472Z,43.00
2022-07-26T13:57:56.279Z,45.00
2022-07-26T14:00:28.848Z,45.00
2022-07-26T14:02:58.724Z,45.80
2022-07-26T14:05:26.718Z,47.20
2022-07-26T14:07:54.629Z,51.10
2022-07-26T14:10:22.766Z,50.20
2022-07-26T14:12:49.607Z,50.80
2022-07-26T14:15:21.761Z,50.10
2022-07-26T14:17:50.565Z,51.20
2022-07-26T14:20:17.502Z,48.00
2022-07-26T14:22:44.958Z,47.00
2022-07-26T14:25:11.968Z,45.90
2022-07-26T14:27:38.710Z,45.80
2022-07-26T14:30:06.226Z,48.80
2022-07-26T14:32:33.028Z,45.10
2022-07-26T14:34:59.755Z,46.20
2022-07-26T14:37:41.052Z,48.20
2022-07-26T14:40:13.241Z,46.40
2022-07-26T14:42:40.141Z,50.00
2022-07-26T14:45:08.186Z,49.70
2022-07-26T14:47:35.035Z,49.70
2022-07-26T14:50:06.497Z,51.70
2022-07-26T14:52:36.192Z,50.20
2022-07-26T14:55:03.015Z,45.10
2022-07-26T14:57:29.743Z,43.80
2022-07-26T14:59:56.506Z,45.00
2022-07-26T15:02:23.397Z,49.30
2022-07-26T15:04:50.257Z,50.30
2022-07-26T15:07:16.965Z,49.10
2022-07-26T15:09:43.701Z,51.20
2022-07-26T15:12:10.442Z,51.70
2022-07-26T15:14:37.832Z,51.00
2022-07-26T15:17:04.623Z,48.00
2022-07-26T15:19:31.363Z,48.30
2022-07-26T15:21:59.012Z,48.70
2022-07-26T15:24:27.060Z,49.70
2022-07-26T15:26:54.052Z,50.70
2022-07-26T15:29:20.878Z,49.60
2022-07-26T15:31:48.791Z,49.90
2022-07-26T15:34:16.223Z,48.30
2022-07-26T15:36:43.174Z,47.70
2022-07-26T15:39:18.313Z,48.60
2022-07-26T15:41:47.619Z,48.20
2022-07-26T15:44:19.433Z,50.00
2022-07-26T15:46:49.195Z,47.20
2022-07-26T15:49:17.481Z,48.80
2022-07-26T15:51:44.797Z,47.10
2022-07-26T15:54:15.121Z,46.30
2022-07-26T15:56:42.906Z,44.00
2022-07-26T15:59:10.156Z,42.40
2022-07-26T16:01:38.011Z,46.70
2022-07-26T16:04:05.756Z,48.20
2022-07-26T16:06:33.552Z,47.90
2022-07-26T16:09:19.968Z,44.70
2022-07-26T16:11:47.879Z,44.10
2022-07-26T16:14:15.531Z,44.60
2022-07-26T16:16:42.471Z,45.00
2022-07-26T16:19:10.111Z,45.10
2022-07-26T16:21:37.744Z,46.90
2022-07-26T16:24:07.102Z,43.30
2022-07-26T16:26:35.662Z,45.90
2022-07-26T16:29:03.525Z,47.10
2022-07-26T16:31:31.270Z,47.20
2022-07-26T16:33:58.374Z,45.40
2022-07-26T16:36:25.144Z,46.90
2022-07-26T16:38:51.929Z,47.80
2022-07-26T16:41:18.871Z,48.20
2022-07-26T16:43:45.638Z,49.30
2022-07-26T16:46:12.465Z,51.30
2022-07-26T16:48:39.315Z,50.60
2022-07-26T16:51:06.205Z,52.60
2022-07-26T16:53:32.945Z,50.00
2022-07-26T16:55:59.908Z,49.30
2022-07-26T16:58:26.725Z,49.60
2022-07-26T17:00:53.665Z,49.50
2022-07-26T17:03:20.867Z,49.50
2022-07-26T17:05:47.671Z,48.10
2022-07-26T17:08:14.504Z,49.50
2022-07-26T17:10:41.547Z,49.60
2022-07-26T17:13:08.385Z,50.10
2022-07-26T17:15:35.348Z,51.70
2022-07-26T17:18:02.560Z,51.00
2022-07-26T17:20:29.754Z,50.40
2022-07-26T17:22:56.691Z,50.40
2022-07-26T17:25:23.699Z,49.70
2022-07-26T17:27:50.699Z,51.20
2022-07-26T17:30:17.706Z,52.20
2022-07-26T17:32:44.621Z,52.30
2022-07-26T17:35:11.382Z,51.80
2022-07-26T17:37:38.139Z,52.00
2022-07-26T17:40:08.164Z,52.10
2022-07-26T17:42:36.126Z,52.50
2022-07-26T17:45:03.471Z,51.60
2022-07-26T17:47:30.922Z,50.40
2022-07-26T17:52:50.500Z,51.90
2022-07-26T17:55:18.986Z,51.50
2022-07-26T17:57:47.648Z,51.70
2022-07-26T18:00:16.663Z,51.90
2022-07-26T18:02:43.578Z,51.40
2022-07-26T18:05:11.280Z,52.50
2022-07-26T18:07:39.154Z,52.20
2022-07-26T18:10:06.553Z,52.10
2022-07-26T18:12:33.732Z,52.20
2022-07-26T18:15:00.484Z,52.80
2022-07-26T18:17:27.249Z,53.80
2022-07-26T18:19:54.038Z,53.50
2022-07-26T18:22:20.793Z,53.80
2022-07-26T18:24:47.566Z,56.20
2022-07-26T18:27:14.426Z,55.30
2022-07-26T18:29:41.671Z,54.40
2022-07-26T18:32:08.864Z,56.00
2022-07-26T18:34:35.612Z,55.30
2022-07-26T18:37:02.307Z,56.30
2022-07-26T18:39:30.496Z,57.30
2022-07-26T18:42:00.001Z,57.40
2022-07-26T18:44:26.779Z,58.20
2022-07-26T18:46:55.945Z,58.70
2022-07-26T18:49:23.243Z,58.10
2022-07-26T18:51:50.225Z,60.00
2022-07-26T18:54:19.617Z,60.30
2022-07-26T18:56:46.401Z,60.40
2022-07-26T18:59:13.538Z,60.20
2022-07-26T19:01:40.720Z,60.30
2022-07-26T19:04:07.959Z,60.50
2022-07-26T19:06:35.623Z,63.30
2022-07-26T19:09:02.625Z,61.40
2022-07-26T19:11:30.382Z,61.80
2022-07-26T19:13:57.504Z,61.60
2022-07-26T19:16:26.392Z,63.50
2022-07-26T19:18:57.297Z,63.20
2022-07-26T19:21:24.584Z,63.10
2022-07-26T19:23:51.438Z,63.60
2022-07-26T19:26:18.445Z,64.10
2022-07-26T19:28:45.202Z,63.70
2022-07-26T19:31:12.084Z,64.80
2022-07-26T19:33:38.908Z,65.10
2022-07-26T19:36:05.784Z,66.80
2022-07-26T19:38:33.136Z,68.30
2022-07-26T19:41:00.558Z,70.30
2022-07-26T19:43:27.939Z,70.40
2022-07-26T19:45:54.798Z,70.50
2022-07-26T19:48:21.658Z,70.30
2022-07-26T19:50:48.702Z,69.80
2022-07-26T19:53:15.505Z,69.70
2022-07-26T19:55:42.552Z,70.00
2022-07-26T19:58:09.749Z,71.50
2022-07-26T20:00:36.730Z,70.40
2022-07-26T20:03:03.841Z,76.40
2022-07-26T20:05:30.712Z,75.10
2022-07-26T20:07:58.184Z,76.10
2022-07-26T20:10:30.031Z,78.90
2022-07-26T20:12:58.707Z,77.10
2022-07-26T20:15:26.169Z,75.90
2022-07-26T20:17:52.973Z,77.90
2022-07-26T20:20:20.264Z,80.10
2022-07-26T20:22:47.046Z,79.10
2022-07-26T20:25:18.091Z,78.20
2022-07-26T20:27:49.791Z,80.20
2022-07-26T20:30:17.236Z,78.40
2022-07-26T20:32:44.598Z,78.20
2022-07-26T20:35:11.982Z,77.90
2022-07-26T20:37:40.727Z,78.80
2022-07-26T20:40:09.331Z,79.20
2022-07-26T20:42:40.388Z,78.90
2022-07-26T20:45:11.403Z,78.50
2022-07-26T20:47:40.465Z,80.10
2022-07-26T20:50:13.641Z,80.50
2022-07-26T20:52:40.394Z,82.50
2022-07-26T20:55:08.142Z,82.70
2022-07-26T20:57:35.313Z,82.90
2022-07-26T21:00:04.449Z,85.40
2022-07-26T21:02:31.263Z,86.60
2022-07-26T21:04:58.793Z,86.60
2022-07-26T21:07:55.609Z,86.40
2022-07-26T21:10:13.686Z,88.20
2022-07-26T21:12:40.482Z,89.90
2022-07-26T21:15:07.615Z,90.50
2022-07-26T21:17:34.704Z,91.10
2022-07-26T21:20:02.937Z,91.20
2022-07-26T21:22:29.829Z,87.90
2022-07-26T21:24:56.886Z,85.00
2022-07-26T21:27:23.666Z,87.60
2022-07-26T21:29:50.619Z,89.00
2022-07-26T21:32:17.335Z,89.00
2022-07-26T21:34:44.092Z,88.50
2022-07-26T21:37:10.866Z,88.60
2022-07-26T21:39:37.600Z,89.30
2022-07-26T21:42:04.578Z,90.10
2022-07-26T21:44:31.340Z,87.10
2022-07-26T21:46:58.131Z,86.00
2022-07-26T21:49:24.966Z,87.80
2022-07-26T21:51:53.138Z,89.00
2022-07-26T21:54:20.101Z,91.50
2022-07-26T21:56:49.434Z,93.20
2022-07-26T21:59:16.470Z,92.00
2022-07-26T22:01:43.403Z,91.60
2022-07-26T22:04:10.294Z,92.70
2022-07-26T22:06:37.805Z,93.10
2022-07-26T22:09:05.215Z,93.60
2022-07-26T22:11:32.139Z,91.50
2022-07-26T22:13:58.981Z,91.30
2022-07-26T22:16:25.884Z,91.20
2022-07-26T22:18:52.750Z,92.20
2022-07-26T22:21:19.741Z,92.90
2022-07-26T22:23:46.923Z,93.70
2022-07-26T22:26:15.132Z,93.60
2022-07-26T22:28:44.309Z,93.20
2022-07-26T22:31:11.213Z,93.70
2022-07-26T22:33:38.140Z,93.30
2022-07-26T22:36:06.983Z,93.10
2022-07-26T22:38:34.064Z,94.60
2022-07-26T22:41:00.937Z,96.00
2022-07-26T22:43:27.752Z,95.80
2022-07-26T22:45:54.729Z,96.40
2022-07-26T22:48:21.798Z,97.90
2022-07-26T22:50:48.734Z,98.70
2022-07-26T22:53:16.487Z,98.20
2022-07-26T22:55:43.466Z,97.80
2022-07-26T22:58:10.372Z,99.90
2022-07-26T23:00:37.362Z,96.30
2022-07-26T23:03:04.748Z,95.30
2022-07-26T23:05:46.349Z,94.20
2022-07-26T23:08:36.772Z,97.10
2022-07-26T23:11:02.395Z,96.30
2022-07-26T23:13:29.459Z,96.90
2022-07-26T23:16:00.351Z,96.50
2022-07-26T23:18:28.718Z,95.50
2022-07-26T23:20:55.554Z,94.40
2022-07-26T23:23:22.511Z,96.90
2022-07-26T23:25:52.217Z,96.10
2022-07-26T23:28:35.288Z,95.10
2022-07-26T23:31:05.844Z,96.00
2022-07-26T23:33:52.366Z,94.50
2022-07-26T23:36:22.378Z,96.20
2022-07-26T23:38:49.309Z,96.10
2022-07-26T23:41:16.343Z,98.40
2022-07-26T23:43:43.328Z,99.50
2022-07-26T23:46:10.536Z,99.90
2022-07-26T23:48:39.258Z,99.90
2022-07-26T23:51:06.158Z,99.90
2022-07-26T23:53:33.175Z,99.90
2022-07-26T23:56:00.174Z,99.90
2022-07-26T23:58:29.723Z,99.90
